createdAt,value
2018-12-03T00:01:55.901Z,9.17
2018-12-03T00:04:24.313Z,6.93
2018-12-03T00:06:52.490Z,6.57
2018-12-03T00:09:21.166Z,8.40
2018-12-03T00:11:48.998Z,7.17
2018-12-03T00:14:16.816Z,7.77
2018-12-03T00:16:44.649Z,11.50
2018-12-03T00:19:19.500Z,7.47
2018-12-03T00:21:47.328Z,6.30
2018-12-03T00:24:15.142Z,7.43
2018-12-03T00:26:43.062Z,11.00
2018-12-03T00:29:10.944Z,9.20
2018-12-03T00:31:38.752Z,9.47
2018-12-03T00:34:06.620Z,7.63
2018-12-03T00:36:34.470Z,11.93
2018-12-03T00:39:02.418Z,8.70
2018-12-03T00:41:30.252Z,10.00
2018-12-03T00:43:59.070Z,7.67
2018-12-03T00:46:26.844Z,10.70
2018-12-03T00:48:54.747Z,6.70
2018-12-03T00:51:22.554Z,8.23
2018-12-03T00:53:50.361Z,9.83
2018-12-03T00:56:18.163Z,7.93
2018-12-03T00:58:45.970Z,6.67
2018-12-03T01:01:13.774Z,8.37
2018-12-03T01:03:41.554Z,8.03
2018-12-03T01:06:09.448Z,5.20
2018-12-03T01:11:30.002Z,5.13
2018-12-03T01:13:58.844Z,5.13
2018-12-03T01:16:26.640Z,4.73
2018-12-03T01:18:54.432Z,5.37
2018-12-03T01:21:22.280Z,3.80
2018-12-03T01:23:50.070Z,4.40
2018-12-03T01:26:17.877Z,5.07
2018-12-03T01:28:45.726Z,4.97
2018-12-03T01:31:14.188Z,5.90
2018-12-03T01:33:42.054Z,2.77
2018-12-03T01:36:10.078Z,4.20
2018-12-03T01:38:37.954Z,4.97
2018-12-03T01:41:06.586Z,3.27
2018-12-03T01:43:34.416Z,6.47
2018-12-03T01:46:02.242Z,3.73
2018-12-03T01:48:30.080Z,5.57
2018-12-03T01:50:57.932Z,6.93
2018-12-03T01:53:25.771Z,5.23
2018-12-03T01:55:53.583Z,6.03
2018-12-03T01:58:21.408Z,6.13
2018-12-03T02:00:49.214Z,2.57
2018-12-03T02:03:17.066Z,3.10
2018-12-03T02:05:44.883Z,4.13
2018-12-03T02:08:12.676Z,3.07
2018-12-03T02:10:41.092Z,5.23
2018-12-03T02:13:08.949Z,2.43
2018-12-03T02:15:36.836Z,2.70
2018-12-03T02:18:05.576Z,3.20
2018-12-03T02:20:34.219Z,2.87
2018-12-03T02:23:02.018Z,3.77
2018-12-03T02:25:29.828Z,2.37
2018-12-03T02:27:57.627Z,3.20
2018-12-03T02:30:25.456Z,2.57
2018-12-03T02:32:53.304Z,2.03
2018-12-03T02:35:21.102Z,2.37
2018-12-03T02:37:48.888Z,3.33
2018-12-03T02:40:16.937Z,4.27
2018-12-03T02:42:44.765Z,1.97
2018-12-03T02:45:13.660Z,2.50
2018-12-03T02:47:41.494Z,1.77
2018-12-03T02:50:12.763Z,4.30
2018-12-03T02:52:40.979Z,3.27
2018-12-03T02:55:09.841Z,3.30
2018-12-03T02:57:37.722Z,2.10
2018-12-03T03:00:15.018Z,1.50
2018-12-03T03:02:44.088Z,2.37
2018-12-03T03:05:14.006Z,0.97
2018-12-03T03:07:41.983Z,0.67
2018-12-03T03:10:11.873Z,1.10
2018-12-03T03:12:39.848Z,1.97
2018-12-03T03:15:09.241Z,2.30
2018-12-03T03:17:37.173Z,1.83
2018-12-03T03:20:06.327Z,5.57
2018-12-03T03:22:34.094Z,2.87
2018-12-03T03:25:01.896Z,2.73
2018-12-03T03:27:29.792Z,4.57
2018-12-03T03:29:57.594Z,4.67
2018-12-03T03:32:25.458Z,4.67
2018-12-03T03:37:20.380Z,4.33
2018-12-03T03:39:48.267Z,4.73
2018-12-03T03:42:16.140Z,5.23
2018-12-03T03:44:44.037Z,3.37
2018-12-03T03:47:11.852Z,5.00
2018-12-03T03:49:39.717Z,7.47
2018-12-03T03:52:07.559Z,5.10
2018-12-03T03:54:35.360Z,5.77
2018-12-03T03:57:03.913Z,6.10
2018-12-03T03:59:31.715Z,6.77
2018-12-03T04:01:59.551Z,7.00
2018-12-03T04:04:27.559Z,5.47
2018-12-03T04:06:55.349Z,8.73
2018-12-03T04:09:23.161Z,6.47
2018-12-03T04:11:50.973Z,4.93
2018-12-03T04:14:18.779Z,8.20
2018-12-03T04:16:46.642Z,7.80
2018-12-03T04:19:14.533Z,7.43
2018-12-03T04:21:42.382Z,6.07
2018-12-03T04:24:10.266Z,8.13
2018-12-03T04:26:38.117Z,6.23
2018-12-03T04:29:05.972Z,3.83
2018-12-03T04:31:33.938Z,7.97
2018-12-03T04:34:05.961Z,8.57
2018-12-03T04:36:33.788Z,8.40
2018-12-03T04:39:01.630Z,8.20
2018-12-03T04:41:29.985Z,8.73
2018-12-03T04:43:57.784Z,6.80
2018-12-03T04:46:25.604Z,10.77
2018-12-03T04:48:54.431Z,10.73
2018-12-03T04:51:22.442Z,10.87
2018-12-03T04:53:50.324Z,8.43
2018-12-03T04:56:18.182Z,8.80
2018-12-03T04:58:46.011Z,11.17
2018-12-03T05:01:14.123Z,9.50
2018-12-03T05:03:41.972Z,9.57
2018-12-03T05:06:09.852Z,12.57
2018-12-03T05:08:37.644Z,11.87
2018-12-03T05:11:06.005Z,12.03
2018-12-03T05:13:33.911Z,9.37
2018-12-03T05:16:01.806Z,11.90
2018-12-03T05:18:29.627Z,9.13
2018-12-03T05:20:57.478Z,9.23
2018-12-03T05:23:25.503Z,8.47
2018-12-03T05:25:53.310Z,9.60
2018-12-03T05:28:21.093Z,13.90
2018-12-03T05:30:48.923Z,10.30
2018-12-03T05:33:16.761Z,10.23
2018-12-03T05:35:44.563Z,10.97
2018-12-03T05:38:12.381Z,13.13
2018-12-03T05:40:40.187Z,12.87
2018-12-03T05:43:08.040Z,14.63
2018-12-03T05:45:36.327Z,13.27
2018-12-03T05:48:04.727Z,13.40
2018-12-03T05:50:32.631Z,11.13
2018-12-03T05:53:00.473Z,13.03
2018-12-03T05:55:28.318Z,11.93
2018-12-03T05:57:57.803Z,17.97
2018-12-03T06:00:25.755Z,11.20
2018-12-03T06:02:53.623Z,10.97
2018-12-03T06:05:23.803Z,11.53
2018-12-03T06:07:51.616Z,11.10
2018-12-03T06:10:20.551Z,18.53
2018-12-03T06:12:48.479Z,15.23
2018-12-03T06:15:17.591Z,15.63
2018-12-03T06:17:46.301Z,12.30
2018-12-03T06:20:26.671Z,12.83
2018-12-03T06:23:00.023Z,11.03
2018-12-03T06:25:28.687Z,11.90
2018-12-03T06:27:56.572Z,10.63
2018-12-03T06:30:25.914Z,15.67
2018-12-03T06:32:53.758Z,19.00
2018-12-03T06:35:21.713Z,15.50
2018-12-03T06:37:49.883Z,11.87
2018-12-03T06:40:21.847Z,15.40
2018-12-03T06:42:49.704Z,14.37
2018-12-03T06:45:19.724Z,15.30
2018-12-03T06:48:51.223Z,15.43
2018-12-03T06:51:19.091Z,16.77
2018-12-03T06:53:48.224Z,20.80
2018-12-03T06:56:16.172Z,13.80
2018-12-03T06:58:44.001Z,16.57
2018-12-03T07:01:11.815Z,16.23
2018-12-03T07:03:39.620Z,19.73
2018-12-03T07:06:07.473Z,18.47
2018-12-03T07:08:35.287Z,21.50
2018-12-03T07:11:03.206Z,22.47
2018-12-03T07:13:31.086Z,17.77
2018-12-03T07:15:59.088Z,20.80
2018-12-03T07:18:27.597Z,14.90
2018-12-03T07:20:55.424Z,20.77
2018-12-03T07:23:23.260Z,22.13
2018-12-03T07:25:51.074Z,20.73
2018-12-03T07:28:19.022Z,16.77
2018-12-03T07:30:47.019Z,19.53
2018-12-03T07:33:15.080Z,20.83
2018-12-03T07:35:43.073Z,16.40
2018-12-03T07:38:10.927Z,17.87
2018-12-03T07:40:38.867Z,21.93
2018-12-03T07:43:06.720Z,18.17
2018-12-03T07:45:34.650Z,19.60
2018-12-03T07:48:03.573Z,16.93
2018-12-03T07:50:31.867Z,14.73
2018-12-03T07:52:59.877Z,18.07
2018-12-03T07:55:31.451Z,15.53
2018-12-03T07:58:01.973Z,19.53
2018-12-03T08:00:33.633Z,15.07
2018-12-03T08:03:01.589Z,20.30
2018-12-03T08:05:49.314Z,17.67
2018-12-03T08:08:17.578Z,23.07
2018-12-03T08:10:50.103Z,17.93
2018-12-03T08:13:18.801Z,19.20
2018-12-03T08:15:47.502Z,21.83
2018-12-03T08:18:17.330Z,16.73
2018-12-03T08:20:57.418Z,23.93
2018-12-03T08:23:29.402Z,19.40
2018-12-03T08:26:06.347Z,21.10
2018-12-03T08:28:34.428Z,18.27
2018-12-03T08:31:02.433Z,20.90
2018-12-03T08:33:30.402Z,18.70
2018-12-03T08:36:00.836Z,15.77
2018-12-03T08:38:28.824Z,16.97
2018-12-03T08:40:57.014Z,16.40
2018-12-03T08:43:24.876Z,17.43
2018-12-03T08:46:04.500Z,20.07
2018-12-03T08:48:37.164Z,14.90
2018-12-03T08:51:05.577Z,25.03
2018-12-03T08:53:33.626Z,16.10
2018-12-03T08:56:01.561Z,17.80
2018-12-03T08:58:29.588Z,17.03
2018-12-03T09:00:57.577Z,19.63
2018-12-03T09:03:27.494Z,16.23
2018-12-03T09:05:56.292Z,19.23
2018-12-03T09:08:23.642Z,12.87
2018-12-03T09:10:52.299Z,17.97
2018-12-03T09:13:22.462Z,19.57
2018-12-03T09:16:11.073Z,15.57
2018-12-03T09:18:40.779Z,16.23
2018-12-03T09:21:16.250Z,20.43
2018-12-03T09:23:45.469Z,17.17
2018-12-03T09:26:14.104Z,15.70
2018-12-03T09:28:42.864Z,18.10
2018-12-03T09:31:17.041Z,14.07
2018-12-03T09:33:52.159Z,14.80
2018-12-03T09:36:20.093Z,12.43
2018-12-03T09:38:55.942Z,15.17
2018-12-03T09:41:23.901Z,16.17
2018-12-03T09:43:51.745Z,13.77
2018-12-03T09:46:21.532Z,55.90
2018-12-03T09:48:54.601Z,14.23
2018-12-03T09:51:22.725Z,16.70
2018-12-03T09:53:52.805Z,12.80
2018-12-03T09:56:20.799Z,20.43
2018-12-03T09:58:48.724Z,16.47
2018-12-03T10:01:16.587Z,13.93
2018-12-03T10:03:44.885Z,17.03
2018-12-03T10:06:15.830Z,16.90
2018-12-03T10:08:43.619Z,16.63
2018-12-03T10:11:11.741Z,18.63
2018-12-03T10:13:39.601Z,15.73
2018-12-03T10:16:11.247Z,18.33
2018-12-03T10:18:39.115Z,19.20
2018-12-03T10:21:06.923Z,16.77
2018-12-03T10:23:34.802Z,14.97
2018-12-03T10:26:06.353Z,16.37
2018-12-03T10:28:34.181Z,13.93
2018-12-03T10:31:02.764Z,13.63
2018-12-03T10:33:32.184Z,13.63
2018-12-03T10:36:07.391Z,12.57
2018-12-03T10:38:37.215Z,17.13
2018-12-03T10:41:16.703Z,15.90
2018-12-03T10:43:45.604Z,11.40
2018-12-03T10:46:14.168Z,14.70
2018-12-03T10:48:42.001Z,14.43
2018-12-03T10:51:13.761Z,10.70
2018-12-03T10:53:41.727Z,12.53
2018-12-03T10:56:13.409Z,10.80
2018-12-03T10:58:43.470Z,12.27
2018-12-03T11:01:18.135Z,13.33
2018-12-03T11:03:51.895Z,12.33
2018-12-03T11:06:21.032Z,8.23
2018-12-03T11:08:49.133Z,10.30
2018-12-03T11:11:17.120Z,8.40
2018-12-03T11:13:45.553Z,13.30
2018-12-03T11:16:30.710Z,10.07
2018-12-03T11:18:58.776Z,11.10
2018-12-03T11:21:27.046Z,11.53
2018-12-03T11:23:58.808Z,9.43
2018-12-03T11:26:31.214Z,10.60
2018-12-03T11:28:59.236Z,9.73
2018-12-03T11:31:28.839Z,11.87
2018-12-03T11:33:56.826Z,10.77
2018-12-03T11:36:31.584Z,10.83
2018-12-03T11:39:07.272Z,7.47
2018-12-03T11:41:35.145Z,11.13
2018-12-03T11:44:06.315Z,10.73
2018-12-03T11:46:35.272Z,8.30
2018-12-03T11:49:03.235Z,9.13
2018-12-03T11:51:31.410Z,10.00
2018-12-03T11:53:59.286Z,9.40
2018-12-03T11:56:27.172Z,7.97
2018-12-03T11:58:55.165Z,10.27
2018-12-03T12:01:23.174Z,10.77
2018-12-03T12:03:56.658Z,7.77
2018-12-03T12:06:25.321Z,10.30
2018-12-03T12:08:53.231Z,8.57
2018-12-03T12:11:21.187Z,9.97
2018-12-03T12:13:52.324Z,10.80
2018-12-03T12:16:20.218Z,12.40
2018-12-03T12:18:48.133Z,13.63
2018-12-03T12:21:15.946Z,7.80
2018-12-03T12:23:43.790Z,12.73
2018-12-03T12:26:11.690Z,8.27
2018-12-03T12:28:39.866Z,10.37
2018-12-03T12:31:07.762Z,13.27
2018-12-03T12:33:35.893Z,10.37
2018-12-03T12:36:03.818Z,8.50
2018-12-03T12:38:31.670Z,8.27
2018-12-03T12:40:59.656Z,7.80
2018-12-03T12:43:27.468Z,7.83
2018-12-03T12:45:59.046Z,8.40
2018-12-03T12:48:26.930Z,9.80
2018-12-03T12:50:54.884Z,8.33
2018-12-03T12:53:23.237Z,9.87
2018-12-03T12:55:51.133Z,10.07
2018-12-03T12:58:18.988Z,6.20
2018-12-03T13:00:46.984Z,7.83
2018-12-03T13:03:14.841Z,7.57
2018-12-03T13:05:43.885Z,8.17
2018-12-03T13:08:11.779Z,34.53
2018-12-03T13:10:39.754Z,9.67
2018-12-03T13:13:07.690Z,8.57
2018-12-03T13:15:36.682Z,8.90
2018-12-03T13:18:05.329Z,7.43
2018-12-03T13:20:33.273Z,7.90
2018-12-03T13:23:01.219Z,13.07
2018-12-03T13:25:29.175Z,18.10
2018-12-03T13:27:57.111Z,30.20
2018-12-03T13:30:25.044Z,17.87
2018-12-03T13:32:53.917Z,25.67
2018-12-03T13:35:29.196Z,42.00
2018-12-03T13:37:55.990Z,37.87
2018-12-03T13:40:23.968Z,19.03
2018-12-03T13:42:51.792Z,11.30
2018-12-03T13:45:21.512Z,10.17
2018-12-03T13:47:49.797Z,7.80
2018-12-03T13:50:17.827Z,8.20
2018-12-03T13:52:45.831Z,9.07
2018-12-03T13:55:16.032Z,10.17
2018-12-03T13:57:43.942Z,5.57
2018-12-03T14:00:22.722Z,5.73
2018-12-03T14:02:55.432Z,2.90
2018-12-03T14:05:25.612Z,4.93
2018-12-03T14:08:00.180Z,4.20
2018-12-03T14:10:44.242Z,6.03
2018-12-03T14:14:21.104Z,4.33
2018-12-03T14:17:02.684Z,5.10
2018-12-03T14:19:31.671Z,6.80
2018-12-03T14:22:17.897Z,6.07
2018-12-03T14:24:49.344Z,5.93
2018-12-03T14:27:17.327Z,6.33
2018-12-03T14:29:45.240Z,5.37
2018-12-03T14:32:13.238Z,6.13
2018-12-03T14:34:41.154Z,5.93
2018-12-03T14:37:09.046Z,9.93
2018-12-03T14:39:36.936Z,5.20
2018-12-03T14:42:05.657Z,5.20
2018-12-03T14:44:40.979Z,9.23
2018-12-03T14:47:09.072Z,6.70
2018-12-03T14:49:36.985Z,6.13
2018-12-03T14:52:06.292Z,6.57
2018-12-03T14:54:35.173Z,7.53
2018-12-03T14:57:03.076Z,9.27
2018-12-03T14:59:31.008Z,6.67
2018-12-03T15:01:59.042Z,7.93
2018-12-03T15:04:27.882Z,8.43
2018-12-03T15:06:56.869Z,7.93
2018-12-03T15:09:24.730Z,5.87
2018-12-03T15:11:52.827Z,7.67
2018-12-03T15:14:20.655Z,9.50
2018-12-03T15:16:48.762Z,7.57
2018-12-03T15:19:16.878Z,8.50
2018-12-03T15:21:44.827Z,7.90
2018-12-03T15:24:13.491Z,14.60
2018-12-03T15:26:40.477Z,17.37
2018-12-03T15:29:08.346Z,11.47
2018-12-03T15:31:36.186Z,9.43
2018-12-03T15:34:10.064Z,16.80
2018-12-03T15:36:37.891Z,12.30
2018-12-03T15:39:08.262Z,8.33
2018-12-03T15:41:37.068Z,9.97
2018-12-03T15:44:05.048Z,10.03
2018-12-03T15:46:32.904Z,8.87
2018-12-03T15:49:00.812Z,9.40
2018-12-03T15:51:28.719Z,8.43
2018-12-03T15:53:58.847Z,7.67
2018-12-03T15:56:26.879Z,11.07
2018-12-03T15:58:54.934Z,10.23
2018-12-03T16:01:22.906Z,9.10
2018-12-03T16:03:51.088Z,10.50
2018-12-03T16:06:19.066Z,9.93
2018-12-03T16:08:47.003Z,9.83
2018-12-03T16:11:15.247Z,11.20
2018-12-03T16:13:43.362Z,11.63
2018-12-03T16:16:12.344Z,11.33
2018-12-03T16:18:40.400Z,10.97
2018-12-03T16:21:08.393Z,8.43
2018-12-03T16:23:36.644Z,9.03
2018-12-03T16:26:11.596Z,13.47
2018-12-03T16:28:39.570Z,10.70
2018-12-03T16:31:07.584Z,7.70
2018-12-03T16:33:35.703Z,13.23
2018-12-03T16:36:03.985Z,13.63
2018-12-03T16:38:31.944Z,14.20
2018-12-03T16:41:00.718Z,14.37
2018-12-03T16:43:28.693Z,13.77
2018-12-03T16:45:57.938Z,18.17
2018-12-03T16:48:25.943Z,13.63
2018-12-03T16:50:53.960Z,15.90
2018-12-03T16:53:21.978Z,10.17
2018-12-03T16:55:58.223Z,15.00
2018-12-03T16:58:26.224Z,17.07
2018-12-03T17:00:55.029Z,18.13
2018-12-03T17:03:23.982Z,12.20
2018-12-03T17:05:52.088Z,14.67
2018-12-03T17:08:20.621Z,17.37
2018-12-03T17:10:48.670Z,16.13
2018-12-03T17:13:17.306Z,15.03
2018-12-03T17:15:45.451Z,13.27
2018-12-03T17:18:14.410Z,16.93
2018-12-03T17:20:50.735Z,15.27
2018-12-03T17:23:23.863Z,14.37
2018-12-03T17:25:51.975Z,14.93
2018-12-03T17:28:20.089Z,17.17
2018-12-03T17:30:48.049Z,19.30
2018-12-03T17:33:16.233Z,18.20
2018-12-03T17:35:48.143Z,15.43
2018-12-03T17:38:16.258Z,17.30
2018-12-03T17:40:44.215Z,16.00
2018-12-03T17:43:12.175Z,19.47
2018-12-03T17:45:41.157Z,23.43
2018-12-03T17:48:09.117Z,21.33
2018-12-03T17:50:38.005Z,16.53
2018-12-03T17:53:06.063Z,19.00
2018-12-03T17:55:34.118Z,17.63
2018-12-03T17:58:02.150Z,23.07
2018-12-03T18:00:30.188Z,18.10
2018-12-03T18:02:58.251Z,19.77
2018-12-03T18:05:29.896Z,21.13
2018-12-03T18:07:57.816Z,22.27
2018-12-03T18:10:26.959Z,16.37
2018-12-03T18:12:55.022Z,18.30
2018-12-03T18:15:26.196Z,21.27
2018-12-03T18:17:54.288Z,20.43
2018-12-03T18:20:22.325Z,23.23
2018-12-03T18:22:50.421Z,17.37
2018-12-03T18:25:22.755Z,20.87
2018-12-03T18:27:50.902Z,19.27
2018-12-03T18:30:18.896Z,19.83
2018-12-03T18:32:47.040Z,23.97
2018-12-03T18:35:17.142Z,19.73
2018-12-03T18:37:45.152Z,17.03
2018-12-03T18:40:13.518Z,18.80
2018-12-03T18:42:41.716Z,17.37
2018-12-03T18:45:12.925Z,22.60
2018-12-03T18:47:42.472Z,21.10
2018-12-03T18:50:15.475Z,22.70
2018-12-03T18:52:43.415Z,15.03
2018-12-03T18:55:12.261Z,16.33
2018-12-03T18:57:40.719Z,21.43
2018-12-03T19:00:13.690Z,17.57
2018-12-03T19:02:41.865Z,18.43
2018-12-03T19:05:09.920Z,19.83
2018-12-03T19:07:37.908Z,21.00
2018-12-03T19:10:07.168Z,18.43
2018-12-03T19:12:35.076Z,18.17
2018-12-03T19:15:03.006Z,24.23
2018-12-03T19:17:30.928Z,17.10
2018-12-03T19:19:58.763Z,12.60
2018-12-03T19:22:26.666Z,17.77
2018-12-03T19:24:54.721Z,15.70
2018-12-03T19:27:22.715Z,22.97
2018-12-03T19:29:50.608Z,16.90
2018-12-03T19:32:18.482Z,15.63
2018-12-03T19:34:46.675Z,20.33
2018-12-03T19:37:14.761Z,21.23
2018-12-03T19:39:42.870Z,20.90
2018-12-03T19:42:11.094Z,18.80
2018-12-03T19:44:39.146Z,21.30
2018-12-03T19:47:07.100Z,20.73
2018-12-03T19:49:35.067Z,27.80
2018-12-03T19:52:03.390Z,16.20
2018-12-03T19:54:35.287Z,21.50
2018-12-03T19:57:05.535Z,17.10
2018-12-03T19:59:37.549Z,13.60
2018-12-03T20:02:05.747Z,16.97
2018-12-03T20:04:39.278Z,17.97
2018-12-03T20:07:07.268Z,16.80
2018-12-03T20:09:35.607Z,21.23
2018-12-03T20:12:03.578Z,16.53
2018-12-03T20:14:34.627Z,16.10
2018-12-03T20:17:02.540Z,23.13
2018-12-03T20:19:30.541Z,18.87
2018-12-03T20:21:58.684Z,15.33
2018-12-03T20:24:27.524Z,15.83
2018-12-03T20:27:05.527Z,16.00
2018-12-03T20:29:39.008Z,16.13
2018-12-03T20:33:15.160Z,13.33
2018-12-03T20:35:51.607Z,15.40
2018-12-03T20:38:41.225Z,13.87
2018-12-03T20:41:18.918Z,13.30
2018-12-03T20:43:48.322Z,14.07
2018-12-03T20:46:24.749Z,10.93
2018-12-03T20:49:10.544Z,13.33
2018-12-03T20:51:40.272Z,9.30
2018-12-03T20:54:09.250Z,12.67
2018-12-03T20:56:37.235Z,7.73
2018-12-03T20:59:05.184Z,8.87
2018-12-03T21:01:36.285Z,9.00
2018-12-03T21:04:04.399Z,10.07
2018-12-03T21:06:32.290Z,8.33
2018-12-03T21:09:00.344Z,7.70
2018-12-03T21:11:28.204Z,9.73
2018-12-03T21:13:57.250Z,8.80
2018-12-03T21:16:25.304Z,6.33
2018-12-03T21:18:53.330Z,7.77
2018-12-03T21:21:21.338Z,6.20
2018-12-03T21:23:49.334Z,7.90
2018-12-03T21:26:17.383Z,5.73
2018-12-03T21:28:45.378Z,5.63
2018-12-03T21:31:16.888Z,10.40
2018-12-03T21:33:44.821Z,7.50
2018-12-03T21:36:12.727Z,9.67
2018-12-03T21:38:40.790Z,8.17
2018-12-03T21:41:08.708Z,7.70
2018-12-03T21:43:36.522Z,6.40
2018-12-03T21:46:04.352Z,5.47
2018-12-03T21:48:32.214Z,6.17
2018-12-03T21:51:00.086Z,6.13
2018-12-03T21:53:28.068Z,9.20
2018-12-03T21:55:55.966Z,5.07
2018-12-03T21:58:24.222Z,7.97
2018-12-03T22:00:52.259Z,5.83
2018-12-03T22:03:20.396Z,4.80
2018-12-03T22:05:49.199Z,5.00
2018-12-03T22:08:17.228Z,7.37
2018-12-03T22:10:45.116Z,8.67
2018-12-03T22:13:13.185Z,9.27
2018-12-03T22:15:41.114Z,8.43
2018-12-03T22:18:08.951Z,9.53
2018-12-03T22:20:36.806Z,10.33
2018-12-03T22:23:04.723Z,7.10
2018-12-03T22:28:43.539Z,7.80
2018-12-03T22:31:17.545Z,11.77
2018-12-03T22:33:50.896Z,11.07
2018-12-03T22:36:24.793Z,10.67
2018-12-03T22:38:56.405Z,10.03
2018-12-03T22:41:29.646Z,9.63
2018-12-03T22:44:02.903Z,7.00
2018-12-03T22:46:32.252Z,9.27
2018-12-03T22:49:03.653Z,9.80
2018-12-03T22:51:35.494Z,8.03
2018-12-03T22:54:12.863Z,9.00
2018-12-03T22:56:44.445Z,5.53
2018-12-03T22:59:15.308Z,4.60
2018-12-03T23:01:46.473Z,9.13
2018-12-03T23:04:19.437Z,7.20
2018-12-03T23:06:50.300Z,10.47
2018-12-03T23:09:23.652Z,6.47
2018-12-03T23:11:53.507Z,6.47
2018-12-03T23:14:25.377Z,8.07
2018-12-03T23:16:57.220Z,9.33
2018-12-03T23:19:28.296Z,7.90
2018-12-03T23:22:00.004Z,10.87
2018-12-03T23:24:31.093Z,9.63
2018-12-03T23:27:05.253Z,5.20
2018-12-03T23:29:39.043Z,7.60
2018-12-03T23:32:13.221Z,5.30
2018-12-03T23:34:44.926Z,4.50
2018-12-03T23:37:15.887Z,7.03
2018-12-03T23:39:49.335Z,4.40
2018-12-03T23:42:20.829Z,5.53
2018-12-03T23:44:51.878Z,2.73
2018-12-03T23:47:25.066Z,4.13
2018-12-03T23:49:56.735Z,5.10
2018-12-03T23:52:27.989Z,3.00
2018-12-03T23:55:01.626Z,7.10
2018-12-03T23:57:33.250Z,5.77
